16  °C
Temperature
13  °C
  Dewpoint
83  %
   Humidity
Temp | Dewpoint | Humidity
3  km/h
Wind Speed
2  mph
Wind Speed
2  kts
Wind Speed
40°
North East

Wind Speed
Light Rain
Showers
Pressure 1010.92 (hPa) - 29.85 (in)
Visibility 6.2 (mi) - 10.0 (km)

Current Conditions
EGBJ
Location 6km (3.2mi)
Metar :EGBJ 151820Z 04002KT 9999 -RA FEW045 16/13 Q1011
Sun 15th May 18:20 pm

Airport
https://www.checkwx.com/
  Metar Aviation API Data Provided by https://www.checkwx.com/ CSS/SVG/PHP scripts by weather34.com © 2015-2022